createdAt,value
2022-12-31T09:41:51.819Z,12.59
2022-12-31T09:44:45.200Z,12.98
2022-12-31T09:47:27.272Z,13.26
2022-12-31T09:50:05.286Z,13.47
2022-12-31T09:52:15.323Z,13.59
2022-12-31T09:54:30.035Z,13.69
2022-12-31T09:56:40.706Z,13.78
2022-12-31T09:58:52.937Z,13.83
2022-12-31T10:01:02.040Z,13.91
2022-12-31T10:03:26.450Z,13.94
2022-12-31T10:05:46.788Z,14.01
2022-12-31T10:07:59.519Z,14.04
2022-12-31T10:10:10.861Z,14.08
2022-12-31T10:12:55.867Z,14.12
2022-12-31T10:15:26.852Z,14.16
2022-12-31T10:17:47.396Z,14.20
2022-12-31T10:20:21.029Z,14.20
2022-12-31T10:22:47.190Z,14.23
2022-12-31T10:25:07.234Z,14.27
2022-12-31T10:27:21.894Z,14.27
2022-12-31T10:29:40.659Z,14.31
2022-12-31T10:31:57.924Z,14.32
2022-12-31T10:34:13.786Z,14.35
2022-12-31T10:36:21.383Z,14.37
2022-12-31T10:38:32.040Z,14.39
2022-12-31T10:40:56.113Z,14.41
2022-12-31T10:43:42.582Z,14.44
2022-12-31T10:46:09.910Z,14.46
2022-12-31T10:48:56.411Z,14.48
2022-12-31T10:51:21.364Z,14.49
2022-12-31T10:53:48.190Z,14.52
2022-12-31T10:56:35.879Z,14.58
2022-12-31T10:59:12.243Z,14.60
2022-12-31T11:01:20.930Z,14.62
2022-12-31T11:03:54.016Z,14.63
2022-12-31T11:06:27.746Z,14.65
2022-12-31T11:08:54.806Z,14.65
2022-12-31T11:11:14.786Z,14.65
2022-12-31T11:13:49.471Z,14.67
2022-12-31T11:16:14.997Z,14.68
2022-12-31T11:18:29.779Z,14.68
2022-12-31T11:20:51.658Z,14.70
2022-12-31T11:23:05.789Z,14.73
2022-12-31T11:25:30.126Z,14.75
2022-12-31T11:27:49.516Z,14.76
2022-12-31T11:30:07.192Z,14.77
2022-12-31T11:32:26.463Z,14.78
2022-12-31T11:35:09.404Z,14.78
2022-12-31T11:37:28.027Z,14.78
2022-12-31T11:39:41.954Z,14.79
2022-12-31T11:41:50.515Z,14.80
2022-12-31T11:44:02.099Z,14.84
2022-12-31T11:46:25.784Z,14.85
2022-12-31T11:48:35.232Z,14.86
2022-12-31T11:50:49.688Z,14.85
2022-12-31T11:52:58.126Z,14.86
2022-12-31T11:55:18.810Z,14.86
2022-12-31T11:57:27.179Z,14.86
2022-12-31T11:59:29.947Z,14.88
2022-12-31T12:01:37.375Z,14.88
2022-12-31T12:03:43.502Z,14.90
2022-12-31T12:05:47.575Z,14.93
2022-12-31T12:07:52.066Z,14.95
2022-12-31T12:09:57.129Z,14.95
2022-12-31T12:12:01.461Z,14.97
2022-12-31T12:14:22.089Z,14.99
2022-12-31T12:16:27.972Z,14.99
2022-12-31T12:18:36.836Z,15.00
2022-12-31T12:20:41.434Z,15.03
2022-12-31T12:22:51.781Z,15.04
2022-12-31T12:24:56.192Z,15.06
2022-12-31T12:26:58.938Z,15.06
2022-12-31T12:29:10.339Z,15.09
2022-12-31T12:31:21.276Z,15.09
2022-12-31T12:33:24.277Z,15.10
2022-12-31T12:35:29.245Z,15.09
2022-12-31T12:37:34.456Z,15.09
2022-12-31T12:39:38.557Z,15.10
2022-12-31T12:41:41.392Z,15.11
2022-12-31T12:43:44.197Z,15.11
2022-12-31T12:45:52.202Z,15.12
2022-12-31T12:47:58.608Z,15.12
2022-12-31T12:50:01.582Z,15.13
2022-12-31T12:52:17.808Z,15.12
2022-12-31T12:54:34.263Z,15.12
2022-12-31T12:56:47.495Z,15.13
2022-12-31T12:59:05.534Z,15.17
2022-12-31T13:01:16.461Z,15.19
2022-12-31T13:03:37.364Z,15.19
2022-12-31T13:05:51.336Z,15.20
2022-12-31T13:08:04.307Z,15.20
2022-12-31T13:10:23.909Z,15.17
2022-12-31T13:13:05.280Z,15.20
2022-12-31T13:15:04.513Z,15.23
2022-12-31T13:17:25.071Z,15.22
2022-12-31T13:19:37.623Z,15.22
2022-12-31T13:21:47.947Z,15.22
2022-12-31T13:23:56.978Z,15.22
2022-12-31T13:26:07.478Z,15.23
2022-12-31T13:28:16.130Z,15.24
2022-12-31T13:30:21.496Z,15.28
2022-12-31T13:32:30.194Z,15.28
2022-12-31T13:34:38.749Z,15.28
2022-12-31T13:36:43.569Z,15.27
2022-12-31T13:38:49.658Z,15.26
2022-12-31T13:40:59.143Z,15.27
2022-12-31T13:43:07.191Z,15.30
2022-12-31T13:45:17.700Z,15.30
2022-12-31T13:47:28.514Z,15.32
2022-12-31T13:49:34.646Z,15.34
2022-12-31T13:51:43.825Z,15.32
2022-12-31T13:53:52.687Z,15.31
2022-12-31T13:55:58.933Z,15.31
2022-12-31T13:58:10.568Z,15.32
2022-12-31T14:00:22.572Z,15.31
2022-12-31T14:02:38.270Z,15.31
2022-12-31T14:04:47.838Z,15.28
2022-12-31T14:06:55.746Z,15.29
2022-12-31T14:08:58.669Z,15.30
2022-12-31T14:11:11.242Z,15.34
2022-12-31T14:13:43.696Z,15.38
2022-12-31T14:15:54.593Z,15.42
2022-12-31T14:18:05.357Z,15.43
2022-12-31T14:20:22.458Z,15.41
2022-12-31T14:22:33.703Z,15.43
2022-12-31T14:24:44.540Z,15.43
2022-12-31T14:26:52.066Z,15.47
2022-12-31T14:29:07.406Z,15.48
2022-12-31T14:31:18.853Z,15.50
2022-12-31T14:33:40.534Z,15.50
2022-12-31T14:36:10.642Z,15.52
2022-12-31T14:38:24.965Z,15.54
2022-12-31T14:40:31.892Z,15.55
2022-12-31T14:42:41.967Z,15.55
2022-12-31T14:44:59.592Z,15.57
2022-12-31T14:47:19.731Z,15.59
2022-12-31T14:49:38.014Z,15.58
2022-12-31T14:51:40.821Z,15.59
2022-12-31T14:53:53.059Z,15.58
2022-12-31T14:56:02.147Z,15.58
2022-12-31T14:58:29.450Z,15.59
2022-12-31T15:00:35.018Z,15.61
2022-12-31T15:02:50.478Z,15.61
2022-12-31T15:05:05.866Z,15.64
2022-12-31T15:07:17.663Z,15.65
2022-12-31T15:09:37.435Z,15.66
2022-12-31T15:12:02.244Z,15.66
2022-12-31T15:14:44.772Z,15.65
2022-12-31T15:16:56.342Z,15.62
2022-12-31T15:19:24.308Z,15.62
2022-12-31T15:21:52.153Z,15.62
2022-12-31T15:23:55.313Z,15.60
2022-12-31T15:26:01.264Z,15.57
2022-12-31T15:28:07.122Z,15.59
2022-12-31T15:30:32.665Z,15.61
2022-12-31T15:32:40.273Z,15.64
2022-12-31T15:34:44.754Z,15.63
2022-12-31T15:36:54.035Z,15.65
2022-12-31T15:39:24.193Z,15.69
2022-12-31T15:41:29.795Z,15.71
2022-12-31T15:43:38.481Z,15.71
2022-12-31T15:45:43.124Z,15.71
2022-12-31T15:47:49.770Z,15.70
2022-12-31T15:49:55.598Z,15.72
2022-12-31T15:52:02.562Z,15.71
2022-12-31T15:54:06.401Z,15.68
2022-12-31T15:56:16.931Z,15.68
2022-12-31T15:58:23.180Z,15.71
2022-12-31T16:00:25.920Z,15.72
2022-12-31T16:02:29.741Z,15.72
2022-12-31T16:04:33.445Z,15.70
2022-12-31T16:06:39.207Z,15.71
2022-12-31T16:08:46.108Z,15.72
2022-12-31T16:10:49.043Z,15.74
2022-12-31T16:12:51.864Z,15.76
2022-12-31T16:14:56.885Z,15.73
2022-12-31T16:17:01.944Z,15.71
2022-12-31T16:19:04.803Z,15.68
2022-12-31T16:21:07.650Z,15.67
2022-12-31T16:23:22.323Z,15.65
2022-12-31T16:25:33.733Z,15.65
2022-12-31T16:27:37.130Z,15.64
2022-12-31T16:29:49.342Z,15.62
2022-12-31T16:31:55.668Z,15.61
2022-12-31T16:34:07.013Z,15.58
2022-12-31T16:36:21.187Z,15.61
2022-12-31T16:38:33.339Z,15.61
2022-12-31T16:40:36.301Z,15.61
2022-12-31T16:42:44.297Z,15.62
2022-12-31T16:44:47.971Z,15.62
2022-12-31T16:46:51.647Z,15.63
2022-12-31T16:48:57.859Z,15.63
2022-12-31T16:51:00.927Z,15.61
2022-12-31T16:53:06.766Z,15.58
2022-12-31T16:55:16.572Z,15.57
2022-12-31T16:57:22.706Z,15.55
2022-12-31T16:59:34.992Z,15.55
2022-12-31T17:01:39.764Z,15.56
2022-12-31T17:03:45.869Z,15.54
2022-12-31T17:06:03.529Z,15.53
2022-12-31T17:08:23.649Z,15.51
2022-12-31T17:10:36.032Z,15.48
2022-12-31T17:13:17.520Z,15.48
2022-12-31T17:15:08.792Z,15.47
2022-12-31T17:17:20.527Z,15.47
2022-12-31T17:19:42.873Z,15.45
2022-12-31T17:21:49.432Z,15.43
2022-12-31T17:23:57.784Z,15.42
2022-12-31T17:26:08.178Z,15.45
2022-12-31T17:28:22.488Z,15.48
2022-12-31T17:30:40.119Z,15.46
2022-12-31T17:32:44.895Z,15.46
2022-12-31T17:34:49.915Z,15.43
2022-12-31T17:37:00.000Z,15.41
2022-12-31T17:39:17.343Z,15.39
2022-12-31T17:41:28.754Z,15.34
2022-12-31T17:43:35.422Z,15.29
2022-12-31T17:45:39.797Z,15.26
2022-12-31T17:47:48.016Z,15.25
2022-12-31T17:49:50.639Z,15.25
2022-12-31T17:51:53.444Z,15.25
2022-12-31T17:53:56.198Z,15.24
2022-12-31T17:56:03.134Z,15.25
2022-12-31T17:58:07.736Z,15.26
2022-12-31T18:00:18.362Z,15.26
2022-12-31T18:02:21.381Z,15.27
2022-12-31T18:04:24.202Z,15.28
2022-12-31T18:06:27.591Z,15.28
2022-12-31T18:08:30.230Z,15.28
2022-12-31T18:10:36.944Z,15.26
2022-12-31T18:12:40.211Z,15.28
2022-12-31T18:14:46.521Z,15.28
2022-12-31T18:16:49.219Z,15.29
2022-12-31T18:18:51.937Z,15.30
2022-12-31T18:20:57.526Z,15.29
2022-12-31T18:23:00.297Z,15.28
2022-12-31T18:25:04.118Z,15.28
2022-12-31T18:27:14.974Z,15.27
2022-12-31T18:29:19.853Z,15.28
2022-12-31T18:31:27.328Z,15.28
2022-12-31T18:33:29.988Z,15.27
2022-12-31T18:36:07.285Z,15.28
2022-12-31T18:37:55.485Z,15.29
2022-12-31T18:39:58.140Z,15.28
2022-12-31T18:42:00.800Z,15.27
2022-12-31T18:44:03.624Z,15.27
2022-12-31T18:46:06.260Z,15.27
2022-12-31T18:48:10.638Z,15.27
2022-12-31T18:50:14.373Z,15.28
2022-12-31T18:52:18.653Z,15.27
2022-12-31T18:54:21.565Z,15.29
2022-12-31T18:56:25.091Z,15.28
2022-12-31T18:58:27.725Z,15.25
2022-12-31T19:00:30.461Z,15.23
2022-12-31T19:02:33.295Z,15.23
2022-12-31T19:04:37.295Z,15.22
2022-12-31T19:06:40.011Z,15.23
2022-12-31T19:08:42.812Z,15.23
2022-12-31T19:10:45.918Z,15.22
2022-12-31T19:12:49.361Z,15.22
2022-12-31T19:14:52.120Z,15.22
2022-12-31T19:16:55.820Z,15.21
2022-12-31T19:19:01.533Z,15.20
2022-12-31T19:21:15.227Z,15.20
2022-12-31T19:23:20.692Z,15.19
2022-12-31T19:25:25.901Z,15.19
2022-12-31T19:27:28.609Z,15.20
2022-12-31T19:29:31.306Z,15.21
2022-12-31T19:31:34.164Z,15.21
2022-12-31T19:33:36.956Z,15.21
2022-12-31T19:35:41.475Z,15.20
2022-12-31T19:37:46.844Z,15.22
2022-12-31T19:39:49.570Z,15.23
2022-12-31T19:41:58.759Z,15.23
2022-12-31T19:44:03.173Z,15.21
2022-12-31T19:46:06.210Z,15.22
2022-12-31T19:48:12.068Z,15.21
2022-12-31T19:50:17.980Z,15.23
2022-12-31T19:52:20.705Z,15.23
2022-12-31T19:54:24.810Z,15.21
2022-12-31T19:56:27.560Z,15.21
2022-12-31T19:58:30.289Z,15.22
2022-12-31T20:00:33.023Z,15.21
2022-12-31T20:02:36.451Z,15.20
2022-12-31T20:04:39.306Z,15.18
2022-12-31T20:06:42.013Z,15.17
2022-12-31T20:08:44.759Z,15.18
2022-12-31T20:10:48.835Z,15.19
2022-12-31T20:12:51.462Z,15.19
2022-12-31T20:14:54.286Z,15.17
2022-12-31T20:16:57.048Z,15.15
2022-12-31T20:18:59.808Z,15.14
2022-12-31T20:21:02.526Z,15.14
2022-12-31T20:23:05.211Z,15.15
2022-12-31T20:25:08.455Z,15.14
2022-12-31T20:27:18.269Z,15.13
2022-12-31T20:29:21.657Z,15.11
2022-12-31T20:31:25.978Z,15.11
2022-12-31T20:33:31.320Z,15.09
2022-12-31T20:35:33.992Z,15.09
2022-12-31T20:37:36.653Z,15.09
2022-12-31T20:39:39.391Z,15.08
2022-12-31T20:41:42.272Z,15.09
2022-12-31T20:43:46.692Z,15.10
2022-12-31T20:45:49.451Z,15.07
2022-12-31T20:47:52.147Z,15.09
2022-12-31T20:50:11.605Z,15.07
2022-12-31T20:52:15.173Z,15.06
2022-12-31T20:54:18.243Z,15.07
2022-12-31T20:56:20.989Z,15.08
2022-12-31T20:58:24.277Z,15.07
2022-12-31T21:00:28.471Z,15.06
2022-12-31T21:02:41.295Z,15.07
2022-12-31T21:04:46.828Z,15.06
2022-12-31T21:06:49.779Z,15.07
2022-12-31T21:08:52.499Z,15.07
2022-12-31T21:10:55.499Z,15.09
2022-12-31T21:12:57.204Z,15.09
2022-12-31T21:15:00.393Z,15.11
2022-12-31T21:17:05.038Z,15.09
2022-12-31T21:19:08.126Z,15.09
2022-12-31T21:21:12.123Z,15.10
2022-12-31T21:23:15.904Z,15.08
2022-12-31T21:25:18.915Z,15.08
2022-12-31T21:27:21.896Z,15.08
2022-12-31T21:29:26.238Z,15.08
2022-12-31T21:31:31.795Z,15.08
2022-12-31T21:33:36.375Z,15.09
2022-12-31T21:35:43.765Z,15.10
2022-12-31T21:37:58.032Z,15.10
2022-12-31T21:40:03.263Z,15.11
2022-12-31T21:42:06.443Z,15.11
2022-12-31T21:44:09.542Z,15.11
2022-12-31T21:46:12.530Z,15.10
2022-12-31T21:48:23.500Z,15.08
2022-12-31T21:50:27.761Z,15.07
2022-12-31T21:52:33.965Z,15.07
2022-12-31T21:54:54.489Z,15.06
2022-12-31T21:56:57.728Z,15.04
2022-12-31T21:59:18.323Z,15.05
2022-12-31T22:01:40.463Z,15.03
2022-12-31T22:03:43.995Z,15.01
2022-12-31T22:05:51.036Z,15.01
2022-12-31T22:07:54.285Z,15.01
2022-12-31T22:09:57.860Z,14.99
2022-12-31T22:12:00.722Z,14.98
2022-12-31T22:14:03.958Z,14.97
2022-12-31T22:16:08.190Z,14.95
2022-12-31T22:18:11.281Z,14.92
2022-12-31T22:20:29.638Z,14.91
2022-12-31T22:22:34.150Z,14.91
2022-12-31T22:24:37.046Z,14.91
2022-12-31T22:26:44.809Z,14.88
2022-12-31T22:28:49.933Z,14.86
2022-12-31T22:30:53.060Z,14.86
2022-12-31T22:32:56.330Z,14.86
2022-12-31T22:34:59.565Z,14.86
2022-12-31T22:37:27.213Z,14.84
2022-12-31T22:39:44.719Z,14.84
2022-12-31T22:41:48.102Z,14.83
2022-12-31T22:43:55.964Z,14.85
2022-12-31T22:46:08.677Z,14.84
2022-12-31T22:48:11.776Z,14.82
2022-12-31T22:50:14.943Z,14.82
2022-12-31T22:52:17.758Z,14.84
2022-12-31T22:54:20.885Z,14.84
2022-12-31T22:56:25.153Z,14.86
2022-12-31T22:58:28.450Z,14.87
2022-12-31T23:00:40.446Z,14.85
2022-12-31T23:02:43.450Z,14.87
2022-12-31T23:04:46.415Z,14.87
2022-12-31T23:06:49.510Z,14.88
2022-12-31T23:09:07.745Z,14.87
2022-12-31T23:11:10.921Z,14.88
2022-12-31T23:13:32.747Z,14.89
2022-12-31T23:15:52.962Z,14.88
2022-12-31T23:18:13.421Z,14.87
2022-12-31T23:20:36.276Z,14.88
2022-12-31T23:22:56.567Z,14.87
2022-12-31T23:24:59.486Z,14.85
2022-12-31T23:27:02.643Z,14.84
2022-12-31T23:29:07.148Z,14.87
2022-12-31T23:31:10.370Z,14.88
2022-12-31T23:33:16.404Z,14.90
2022-12-31T23:35:19.659Z,14.91
2022-12-31T23:37:22.967Z,14.94
2022-12-31T23:39:26.326Z,14.94
2022-12-31T23:41:29.416Z,14.91
2022-12-31T23:43:32.401Z,14.92
2022-12-31T23:45:37.671Z,14.93
2022-12-31T23:47:40.650Z,14.91
2022-12-31T23:49:43.937Z,14.93
2022-12-31T23:51:47.132Z,14.92
2022-12-31T23:53:51.623Z,14.91
2022-12-31T23:55:54.852Z,14.91
2022-12-31T23:57:58.844Z,14.90
